createdAt,value
2023-02-14T00:01:27.389Z,5.87
2023-02-14T00:04:02.793Z,6.43
2023-02-14T00:06:35.224Z,5.27
2023-02-14T00:09:03.238Z,5.67
2023-02-14T00:11:31.388Z,5.73
2023-02-14T00:14:18.269Z,5.03
2023-02-14T00:16:46.264Z,5.57
2023-02-14T00:19:16.480Z,5.03
2023-02-14T00:21:44.693Z,5.47
2023-02-14T00:24:19.259Z,4.87
2023-02-14T00:26:47.534Z,4.10
2023-02-14T00:29:18.675Z,5.53
2023-02-14T00:31:46.832Z,4.82
2023-02-14T00:34:16.880Z,4.60
2023-02-14T00:36:45.378Z,5.93
2023-02-14T00:39:14.898Z,6.10
2023-02-14T00:41:43.496Z,5.97
2023-02-14T00:44:12.912Z,5.67
2023-02-14T00:46:41.058Z,5.20
2023-02-14T00:49:09.154Z,5.30
2023-02-14T00:51:39.557Z,5.30
2023-02-14T00:54:07.595Z,5.77
2023-02-14T00:56:35.734Z,6.10
2023-02-14T00:59:03.545Z,5.80
2023-02-14T01:01:31.694Z,5.73
2023-02-14T01:03:59.792Z,5.57
2023-02-14T01:06:27.798Z,6.63
2023-02-14T01:08:58.103Z,5.70
2023-02-14T01:11:27.483Z,5.90
2023-02-14T01:13:58.249Z,5.65
2023-02-14T01:16:28.277Z,6.63
2023-02-14T01:18:58.035Z,5.83
2023-02-14T01:21:30.414Z,4.90
2023-02-14T01:24:02.576Z,5.27
2023-02-14T01:26:30.819Z,5.23
2023-02-14T01:29:02.995Z,5.63
2023-02-14T01:31:33.419Z,5.90
2023-02-14T01:34:01.804Z,5.73
2023-02-14T01:36:33.802Z,5.80
2023-02-14T01:39:05.655Z,6.20
2023-02-14T01:41:37.318Z,5.47
2023-02-14T01:44:37.081Z,6.30
2023-02-14T01:47:09.686Z,7.53
2023-02-14T01:49:53.246Z,5.20
2023-02-14T01:52:34.103Z,5.47
2023-02-14T01:55:08.820Z,4.95
2023-02-14T01:57:44.302Z,6.47
2023-02-14T02:00:31.425Z,5.63
2023-02-14T02:03:04.221Z,4.80
2023-02-14T02:05:32.622Z,6.45
2023-02-14T02:08:01.308Z,4.77
2023-02-14T02:10:29.529Z,5.60
2023-02-14T02:13:04.199Z,5.87
2023-02-14T02:15:44.458Z,6.20
2023-02-14T02:18:44.816Z,6.60
2023-02-14T02:21:48.786Z,4.33
2023-02-14T02:24:54.895Z,6.97
2023-02-14T02:27:40.785Z,4.90
2023-02-14T02:30:15.722Z,4.70
2023-02-14T02:33:25.408Z,4.73
2023-02-14T02:36:19.969Z,5.10
2023-02-14T02:39:12.075Z,4.67
2023-02-14T02:41:48.877Z,5.30
2023-02-14T02:44:43.253Z,6.03
2023-02-14T02:47:29.734Z,5.57
2023-02-14T02:50:39.607Z,4.37
2023-02-14T02:53:41.512Z,5.03
2023-02-14T02:56:41.424Z,5.63
2023-02-14T02:59:30.618Z,4.67
2023-02-14T03:02:23.709Z,6.00
2023-02-14T03:04:56.294Z,5.37
2023-02-14T03:07:40.872Z,6.13
2023-02-14T03:10:20.647Z,5.10
2023-02-14T03:13:37.411Z,5.57
2023-02-14T03:16:20.063Z,5.63
2023-02-14T03:19:21.513Z,5.43
2023-02-14T03:21:54.680Z,4.95
2023-02-14T03:25:06.400Z,7.33
2023-02-14T03:27:48.592Z,5.45
2023-02-14T03:30:41.748Z,6.20
2023-02-14T03:33:25.076Z,4.43
2023-02-14T03:36:02.311Z,4.65
2023-02-14T03:38:33.174Z,5.23
2023-02-14T03:41:11.346Z,5.47
2023-02-14T03:44:01.298Z,6.07
2023-02-14T03:46:45.665Z,5.00
2023-02-14T03:49:19.974Z,4.63
2023-02-14T03:51:50.965Z,4.23
2023-02-14T03:54:19.400Z,4.25
2023-02-14T03:57:34.524Z,4.77
2023-02-14T04:00:03.405Z,4.07
2023-02-14T04:02:55.188Z,4.13
2023-02-14T04:05:26.438Z,4.63
2023-02-14T04:07:57.560Z,3.63
2023-02-14T04:10:26.372Z,3.13
2023-02-14T04:12:54.548Z,4.87
2023-02-14T04:15:22.384Z,3.77
2023-02-14T04:18:08.838Z,3.20
2023-02-14T04:20:37.205Z,3.67
2023-02-14T04:23:05.117Z,4.33
2023-02-14T04:25:32.954Z,3.80
2023-02-14T04:28:00.850Z,4.20
2023-02-14T04:30:28.742Z,3.27
2023-02-14T04:32:56.647Z,4.83
2023-02-14T04:35:24.519Z,3.90
2023-02-14T04:37:52.337Z,5.40
2023-02-14T04:40:20.296Z,4.70
2023-02-14T04:42:48.172Z,4.37
2023-02-14T04:45:16.358Z,5.47
2023-02-14T04:47:44.214Z,4.83
2023-02-14T04:50:12.389Z,4.67
2023-02-14T04:52:40.716Z,3.83
2023-02-14T04:55:09.875Z,2.87
2023-02-14T04:57:37.837Z,4.07
2023-02-14T05:00:06.605Z,4.57
2023-02-14T05:02:34.446Z,3.67
2023-02-14T05:05:02.474Z,3.80
2023-02-14T05:07:30.380Z,4.33
2023-02-14T05:09:58.353Z,3.93
2023-02-14T05:12:26.434Z,4.97
2023-02-14T05:14:54.332Z,4.27
2023-02-14T05:17:23.465Z,3.43
2023-02-14T05:19:51.271Z,4.43
2023-02-14T05:22:19.069Z,3.33
2023-02-14T05:24:46.901Z,5.07
2023-02-14T05:27:14.777Z,3.80
2023-02-14T05:29:42.635Z,4.23
2023-02-14T05:32:10.559Z,5.03
2023-02-14T05:34:39.119Z,4.73
2023-02-14T05:37:07.059Z,4.23
2023-02-14T05:39:34.921Z,4.13
2023-02-14T05:42:03.181Z,4.33
2023-02-14T05:44:31.090Z,5.63
2023-02-14T05:47:00.077Z,7.03
2023-02-14T05:49:27.938Z,4.37
2023-02-14T05:51:55.898Z,4.53
2023-02-14T05:54:23.975Z,5.13
2023-02-14T05:56:51.811Z,5.50
2023-02-14T05:59:19.790Z,5.37
2023-02-14T06:01:47.941Z,4.73
2023-02-14T06:04:15.924Z,4.17
2023-02-14T06:06:43.788Z,3.33
2023-02-14T06:09:11.599Z,5.17
2023-02-14T06:11:39.508Z,5.50
2023-02-14T06:14:07.334Z,4.23
2023-02-14T06:16:35.230Z,5.37
2023-02-14T06:19:03.199Z,5.50
2023-02-14T06:21:31.491Z,4.17
2023-02-14T06:23:59.309Z,4.23
2023-02-14T06:26:27.997Z,4.67
2023-02-14T06:28:58.260Z,5.33
2023-02-14T06:31:26.447Z,3.88
2023-02-14T06:33:55.218Z,5.07
2023-02-14T06:36:24.519Z,5.27
2023-02-14T06:38:53.692Z,4.53
2023-02-14T06:41:21.508Z,5.50
2023-02-14T06:43:49.325Z,6.97
2023-02-14T06:46:18.191Z,5.10
2023-02-14T06:48:46.213Z,4.33
2023-02-14T06:51:14.232Z,5.70
2023-02-14T06:53:42.445Z,5.00
2023-02-14T06:56:10.294Z,4.87
2023-02-14T06:58:38.266Z,3.53
2023-02-14T07:01:06.224Z,4.13
2023-02-14T07:03:34.062Z,4.47
2023-02-14T07:06:01.879Z,4.97
2023-02-14T07:08:29.720Z,5.43
2023-02-14T07:10:58.745Z,5.13
2023-02-14T07:13:26.973Z,4.97
2023-02-14T07:15:54.937Z,3.83
2023-02-14T07:18:22.851Z,4.80
2023-02-14T07:20:51.315Z,5.33
2023-02-14T07:23:19.549Z,6.43
2023-02-14T07:25:49.019Z,6.40
2023-02-14T07:28:17.084Z,5.07
2023-02-14T07:30:44.755Z,4.50
2023-02-14T07:33:12.767Z,6.87
2023-02-14T07:35:40.646Z,5.87
2023-02-14T07:38:08.504Z,6.13
2023-02-14T07:40:36.329Z,5.00
2023-02-14T07:43:04.188Z,5.30
2023-02-14T07:45:32.041Z,5.60
2023-02-14T07:48:02.269Z,6.83
2023-02-14T07:50:30.514Z,5.47
2023-02-14T07:52:58.393Z,6.10
2023-02-14T07:55:26.291Z,6.93
2023-02-14T07:57:54.223Z,5.33
2023-02-14T08:00:24.299Z,6.07
2023-02-14T08:02:52.223Z,6.93
2023-02-14T08:05:20.340Z,5.93
2023-02-14T08:07:48.559Z,6.23
2023-02-14T08:10:16.643Z,7.17
2023-02-14T08:13:00.755Z,5.47
2023-02-14T08:15:54.294Z,5.70
2023-02-14T08:18:27.063Z,5.60
2023-02-14T08:20:55.043Z,6.07
2023-02-14T08:23:23.268Z,5.70
2023-02-14T08:25:52.512Z,5.57
2023-02-14T08:28:24.623Z,5.83
2023-02-14T08:30:53.284Z,6.70
2023-02-14T08:33:21.512Z,5.33
2023-02-14T08:35:51.036Z,6.03
2023-02-14T08:38:18.826Z,5.43
2023-02-14T08:40:46.982Z,7.23
2023-02-14T08:43:14.959Z,6.77
2023-02-14T08:45:44.258Z,6.40
2023-02-14T08:48:12.984Z,6.40
2023-02-14T08:50:43.533Z,6.57
2023-02-14T08:53:12.957Z,6.03
2023-02-14T08:55:40.928Z,7.90
2023-02-14T08:58:08.876Z,6.30
2023-02-14T09:00:36.777Z,5.57
2023-02-14T09:03:04.852Z,7.40
2023-02-14T09:05:34.205Z,7.63
2023-02-14T09:08:03.139Z,5.60
2023-02-14T09:10:31.473Z,6.87
2023-02-14T09:12:59.314Z,8.07
2023-02-14T09:15:27.137Z,7.20
2023-02-14T09:17:55.049Z,6.20
2023-02-14T09:20:23.165Z,5.57
2023-02-14T09:22:51.472Z,8.05
2023-02-14T09:25:19.382Z,7.25
2023-02-14T09:27:47.332Z,6.32
2023-02-14T09:30:15.726Z,7.20
2023-02-14T09:32:43.662Z,7.00
2023-02-14T09:35:11.477Z,6.68
2023-02-14T09:37:39.314Z,7.18
2023-02-14T09:40:07.846Z,6.68
2023-02-14T09:43:01.827Z,6.70
2023-02-14T09:45:32.753Z,7.85
2023-02-14T09:48:06.261Z,5.90
2023-02-14T09:50:46.234Z,7.95
2023-02-14T09:53:26.290Z,8.32
2023-02-14T09:56:50.392Z,8.07
2023-02-14T09:59:34.292Z,6.05
2023-02-14T10:02:42.370Z,7.10
2023-02-14T10:05:27.082Z,6.68
2023-02-14T10:08:18.158Z,5.75
2023-02-14T10:11:02.712Z,6.90
2023-02-14T10:13:36.545Z,6.10
2023-02-14T10:16:29.411Z,6.10
2023-02-14T10:19:07.141Z,6.38
2023-02-14T10:21:41.802Z,6.47
2023-02-14T10:24:26.224Z,6.22
2023-02-14T10:27:02.264Z,6.72
2023-02-14T10:29:30.318Z,7.20
2023-02-14T10:32:04.568Z,6.90
2023-02-14T10:34:40.083Z,6.88
2023-02-14T10:37:51.577Z,7.35
2023-02-14T10:40:49.019Z,6.65
2023-02-14T10:44:01.060Z,6.88
2023-02-14T10:47:03.363Z,5.90
2023-02-14T10:50:12.447Z,5.95
2023-02-14T10:53:10.043Z,7.10
2023-02-14T10:55:56.972Z,7.70
2023-02-14T10:58:29.312Z,6.68
2023-02-14T11:01:16.030Z,6.60
2023-02-14T11:03:58.492Z,7.05
2023-02-14T11:06:26.625Z,6.97
2023-02-14T11:08:57.482Z,6.93
2023-02-14T11:11:37.927Z,7.05
2023-02-14T11:14:32.396Z,6.77
2023-02-14T11:17:01.821Z,5.93
2023-02-14T11:19:31.496Z,6.75
2023-02-14T11:22:01.004Z,6.68
2023-02-14T11:24:39.336Z,6.90
2023-02-14T11:27:18.847Z,6.72
2023-02-14T11:29:52.122Z,6.57
2023-02-14T11:32:29.222Z,6.32
2023-02-14T11:35:17.809Z,5.97
2023-02-14T11:37:56.948Z,5.97
2023-02-14T11:40:37.973Z,5.20
2023-02-14T11:43:14.387Z,6.00
2023-02-14T11:45:44.698Z,6.53
2023-02-14T11:48:38.376Z,6.72
2023-02-14T11:51:13.700Z,6.40
2023-02-14T11:53:57.228Z,6.13
2023-02-14T11:56:25.204Z,5.97
2023-02-14T11:59:00.682Z,6.13
2023-02-14T12:01:33.223Z,5.97
2023-02-14T12:04:15.289Z,6.00
2023-02-14T12:06:44.607Z,5.22
2023-02-14T12:09:26.777Z,5.07
2023-02-14T12:12:16.631Z,5.63
2023-02-14T12:14:44.959Z,5.18
2023-02-14T12:17:30.602Z,5.05
2023-02-14T12:21:13.019Z,5.30
2023-02-14T12:23:49.307Z,4.75
2023-02-14T12:26:33.266Z,4.88
2023-02-14T12:29:12.879Z,4.38
2023-02-14T12:31:42.168Z,4.03
2023-02-14T12:34:13.456Z,4.80
2023-02-14T12:37:25.990Z,4.47
2023-02-14T12:40:36.621Z,4.45
2023-02-14T12:43:22.378Z,4.35
2023-02-14T12:46:18.499Z,3.80
2023-02-14T12:48:55.117Z,3.50
2023-02-14T12:51:50.398Z,3.63
2023-02-14T12:54:29.893Z,4.50
2023-02-14T12:57:47.841Z,4.38
2023-02-14T13:00:34.969Z,3.85
2023-02-14T13:03:42.607Z,4.00
2023-02-14T13:06:44.970Z,3.63
2023-02-14T13:09:31.604Z,3.88
2023-02-14T13:12:56.605Z,3.50
2023-02-14T13:15:44.629Z,3.70
2023-02-14T13:18:16.375Z,4.18
2023-02-14T13:20:56.095Z,3.63
2023-02-14T13:23:38.520Z,3.53
2023-02-14T13:26:19.773Z,3.70
2023-02-14T13:28:55.899Z,3.92
2023-02-14T13:31:24.188Z,3.58
2023-02-14T13:33:59.060Z,3.10
2023-02-14T13:36:28.865Z,3.90
2023-02-14T13:38:59.430Z,3.75
2023-02-14T13:41:28.331Z,3.53
2023-02-14T13:44:02.494Z,3.92
2023-02-14T13:46:33.121Z,3.55
2023-02-14T13:49:23.869Z,3.95
2023-02-14T13:51:58.622Z,4.00
2023-02-14T13:54:45.439Z,4.20
2023-02-14T13:57:41.348Z,3.97
2023-02-14T14:00:17.458Z,4.25
2023-02-14T14:02:54.117Z,4.07
2023-02-14T14:05:32.392Z,4.00
2023-02-14T14:08:21.177Z,4.03
2023-02-14T14:10:55.727Z,4.03
2023-02-14T14:13:42.014Z,3.50
2023-02-14T14:16:27.812Z,3.65
2023-02-14T14:19:23.593Z,4.22
2023-02-14T14:22:12.524Z,4.43
2023-02-14T14:24:56.052Z,4.07
2023-02-14T14:27:33.733Z,3.90
2023-02-14T14:30:30.991Z,3.78
2023-02-14T14:33:16.885Z,4.10
2023-02-14T14:35:58.164Z,4.45
2023-02-14T14:38:27.656Z,4.47
2023-02-14T14:40:55.886Z,4.05
2023-02-14T14:43:34.249Z,4.07
2023-02-14T14:46:03.862Z,4.18
2023-02-14T14:48:44.820Z,3.70
2023-02-14T14:51:34.786Z,4.22
2023-02-14T14:54:18.497Z,3.67
2023-02-14T14:57:01.580Z,4.13
2023-02-14T14:59:36.151Z,3.53
2023-02-14T15:02:20.728Z,3.97
2023-02-14T15:04:49.489Z,4.10
2023-02-14T15:07:33.492Z,3.88
2023-02-14T15:10:01.914Z,4.07
2023-02-14T15:12:48.854Z,3.38
2023-02-14T15:15:18.550Z,3.75
2023-02-14T15:17:46.901Z,3.77
2023-02-14T15:20:23.739Z,4.05
2023-02-14T15:22:53.071Z,3.70
2023-02-14T15:25:34.639Z,3.67
2023-02-14T15:28:03.178Z,4.00
2023-02-14T15:30:37.818Z,4.07
2023-02-14T15:33:07.131Z,3.60
2023-02-14T15:35:42.200Z,4.22
2023-02-14T15:38:12.496Z,4.05
2023-02-14T15:40:41.871Z,3.92
2023-02-14T15:43:37.553Z,4.20
2023-02-14T15:46:39.516Z,4.50
2023-02-14T15:49:16.821Z,3.67
2023-02-14T15:51:45.122Z,4.07
2023-02-14T15:54:44.689Z,4.05
2023-02-14T15:57:25.082Z,4.00
2023-02-14T15:59:53.594Z,4.30
2023-02-14T16:02:31.701Z,4.47
2023-02-14T16:05:05.192Z,3.95
2023-02-14T16:07:33.189Z,4.45
2023-02-14T16:10:23.191Z,4.15
2023-02-14T16:13:08.799Z,4.82
2023-02-14T16:15:42.022Z,4.70
2023-02-14T16:18:42.310Z,4.22
2023-02-14T16:21:11.555Z,4.10
2023-02-14T16:23:39.882Z,4.40
2023-02-14T16:26:08.554Z,4.75
2023-02-14T16:28:36.923Z,4.22
2023-02-14T16:31:10.158Z,4.00
2023-02-14T16:33:40.344Z,4.68
2023-02-14T16:36:26.331Z,4.10
2023-02-14T16:38:54.460Z,3.90
2023-02-14T16:41:28.280Z,4.28
2023-02-14T16:43:56.448Z,4.13
2023-02-14T16:46:29.158Z,4.20
2023-02-14T16:48:57.265Z,4.45
2023-02-14T16:51:32.248Z,3.70
2023-02-14T16:54:05.491Z,4.47
2023-02-14T16:56:43.982Z,4.32
2023-02-14T16:59:11.837Z,4.85
2023-02-14T17:01:39.441Z,4.25
2023-02-14T17:04:07.048Z,4.57
2023-02-14T17:06:38.768Z,7.80
2023-02-14T17:09:11.486Z,6.18
2023-02-14T17:11:45.264Z,5.10
2023-02-14T17:14:18.947Z,6.25
2023-02-14T17:16:46.927Z,4.57
2023-02-14T17:19:14.877Z,5.90
2023-02-14T17:21:43.838Z,6.30
2023-02-14T17:24:12.055Z,4.78
2023-02-14T17:26:40.596Z,4.95
2023-02-14T17:29:09.163Z,7.63
2023-02-14T17:31:37.289Z,5.97
2023-02-14T17:34:05.279Z,5.60
2023-02-14T17:36:33.215Z,5.47
2023-02-14T17:39:03.188Z,5.50
2023-02-14T17:41:31.375Z,5.05
2023-02-14T17:44:02.415Z,4.97
2023-02-14T17:46:31.558Z,6.13
2023-02-14T17:49:02.534Z,5.53
2023-02-14T17:51:31.019Z,5.63
2023-02-14T17:53:59.064Z,6.70
2023-02-14T17:56:27.431Z,6.40
2023-02-14T17:58:56.052Z,7.03
2023-02-14T18:01:28.439Z,6.47
2023-02-14T18:03:56.460Z,6.25
2023-02-14T18:06:26.485Z,6.85
2023-02-14T18:08:57.008Z,6.40
2023-02-14T18:11:27.697Z,8.02
2023-02-14T18:13:58.047Z,7.10
2023-02-14T18:16:26.039Z,5.35
2023-02-14T18:18:54.899Z,5.93
2023-02-14T18:21:24.389Z,7.47
2023-02-14T18:23:52.314Z,6.03
2023-02-14T18:26:20.253Z,4.88
2023-02-14T18:28:48.860Z,5.22
2023-02-14T18:31:18.416Z,4.80
2023-02-14T18:33:48.164Z,5.55
2023-02-14T18:36:21.820Z,5.55
2023-02-14T18:38:49.863Z,4.53
2023-02-14T18:41:19.886Z,4.95
2023-02-14T18:43:49.209Z,4.68
2023-02-14T18:46:27.066Z,6.15
2023-02-14T18:48:56.593Z,5.35
2023-02-14T18:51:33.835Z,5.35
2023-02-14T18:54:02.994Z,5.47
2023-02-14T18:56:36.806Z,5.20
2023-02-14T18:59:08.135Z,5.47
2023-02-14T19:04:08.862Z,4.68
2023-02-14T19:06:36.865Z,5.67
2023-02-14T19:09:13.074Z,6.05
2023-02-14T19:11:41.260Z,5.38
2023-02-14T19:14:10.048Z,4.85
2023-02-14T19:16:43.873Z,5.78
2023-02-14T19:19:12.035Z,5.40
2023-02-14T19:21:39.995Z,5.70
2023-02-14T19:24:07.989Z,5.60
2023-02-14T19:26:40.415Z,6.15
2023-02-14T19:29:14.164Z,4.88
2023-02-14T19:31:45.817Z,4.45
2023-02-14T19:34:28.287Z,4.97
2023-02-14T19:36:59.748Z,6.07
2023-02-14T19:39:32.130Z,4.57
2023-02-14T19:42:00.375Z,4.78
2023-02-14T19:44:31.061Z,5.60
2023-02-14T19:47:07.736Z,5.95
2023-02-14T19:49:43.665Z,5.78
2023-02-14T19:52:25.744Z,8.63
2023-02-14T19:54:57.604Z,7.10
2023-02-14T19:57:25.237Z,6.40
2023-02-14T19:59:53.293Z,4.80
2023-02-14T20:02:23.317Z,6.28
2023-02-14T20:04:52.907Z,5.70
2023-02-14T20:07:21.954Z,5.00
2023-02-14T20:09:50.255Z,5.10
2023-02-14T20:12:18.145Z,5.28
2023-02-14T20:14:51.364Z,4.50
2023-02-14T20:17:19.818Z,3.72
2023-02-14T20:19:48.797Z,5.40
2023-02-14T20:22:16.686Z,3.70
2023-02-14T20:24:44.612Z,3.65
2023-02-14T20:27:12.693Z,4.82
2023-02-14T20:29:43.198Z,3.95
2023-02-14T20:32:14.739Z,3.45
2023-02-14T20:34:42.960Z,3.95
2023-02-14T20:37:11.690Z,4.57
2023-02-14T20:39:40.638Z,5.18
2023-02-14T20:42:08.635Z,4.55
2023-02-14T20:44:36.989Z,4.45
2023-02-14T20:47:06.744Z,4.20
2023-02-14T20:49:35.682Z,4.63
2023-02-14T20:52:04.078Z,4.07
2023-02-14T20:54:32.412Z,4.28
2023-02-14T20:57:00.220Z,4.05
2023-02-14T20:59:28.512Z,4.25
2023-02-14T21:01:59.450Z,3.70
2023-02-14T21:04:28.018Z,4.30
2023-02-14T21:06:57.698Z,3.88
2023-02-14T21:09:25.711Z,5.20
2023-02-14T21:11:53.912Z,4.53
2023-02-14T21:14:22.201Z,3.33
2023-02-14T21:16:50.092Z,4.35
2023-02-14T21:19:18.634Z,5.53
2023-02-14T21:21:46.538Z,3.77
2023-02-14T21:24:16.240Z,5.37
2023-02-14T21:26:44.553Z,4.07
2023-02-14T21:29:12.397Z,4.30
2023-02-14T21:31:40.433Z,4.00
2023-02-14T21:34:08.455Z,4.63
2023-02-14T21:36:36.351Z,4.20
2023-02-14T21:39:06.621Z,4.17
2023-02-14T21:41:36.073Z,3.77
2023-02-14T21:44:04.649Z,4.20
2023-02-14T21:46:36.652Z,4.30
2023-02-14T21:49:24.517Z,4.23
2023-02-14T21:51:52.649Z,4.83
2023-02-14T21:54:20.699Z,4.10
2023-02-14T21:56:49.724Z,3.87
2023-02-14T21:59:17.544Z,6.03
2023-02-14T22:01:45.442Z,3.97
2023-02-14T22:04:13.364Z,4.97
2023-02-14T22:06:42.382Z,5.07
2023-02-14T22:09:17.353Z,4.27
2023-02-14T22:11:48.602Z,4.00
2023-02-14T22:14:16.648Z,4.70
2023-02-14T22:16:44.472Z,5.53
2023-02-14T22:19:15.381Z,5.43
2023-02-14T22:21:43.803Z,3.92
2023-02-14T22:24:12.561Z,5.60
2023-02-14T22:26:40.846Z,4.97
2023-02-14T22:29:10.899Z,5.57
2023-02-14T22:31:41.613Z,4.60
2023-02-14T22:34:14.250Z,5.45
2023-02-14T22:36:42.334Z,4.70
2023-02-14T22:39:14.837Z,4.20
2023-02-14T22:41:42.893Z,5.10
2023-02-14T22:44:12.342Z,4.07
2023-02-14T22:46:40.620Z,5.33
2023-02-14T22:49:08.559Z,4.03
2023-02-14T22:51:39.357Z,4.80
2023-02-14T22:54:12.288Z,3.83
2023-02-14T22:56:46.109Z,3.97
2023-02-14T22:59:21.867Z,3.67
2023-02-14T23:01:51.779Z,4.17
2023-02-14T23:04:22.072Z,4.67
2023-02-14T23:06:52.170Z,4.40
2023-02-14T23:09:20.525Z,3.73
2023-02-14T23:11:48.964Z,4.23
2023-02-14T23:14:39.105Z,3.87
2023-02-14T23:17:26.186Z,3.73
2023-02-14T23:20:12.440Z,4.87
2023-02-14T23:22:41.154Z,4.57
2023-02-14T23:25:11.944Z,5.17
2023-02-14T23:27:45.073Z,4.05
2023-02-14T23:30:18.214Z,4.63
2023-02-14T23:32:46.393Z,3.93
2023-02-14T23:35:14.670Z,4.17
2023-02-14T23:37:42.638Z,3.83
2023-02-14T23:40:10.878Z,5.57
2023-02-14T23:42:38.771Z,4.13
2023-02-14T23:45:25.681Z,4.93
2023-02-14T23:47:53.576Z,4.60
2023-02-14T23:50:21.457Z,5.17
2023-02-14T23:52:49.258Z,5.60
2023-02-14T23:55:17.190Z,4.67
2023-02-14T23:57:45.347Z,4.50
